createdAt,value
2022-08-17T00:01:51.581Z,3.58
2022-08-17T00:04:19.875Z,3.13
2022-08-17T00:06:48.616Z,3.38
2022-08-17T00:09:18.774Z,3.30
2022-08-17T00:12:42.317Z,3.17
2022-08-17T00:14:35.123Z,3.13
2022-08-17T00:17:03.705Z,3.50
2022-08-17T00:19:32.507Z,3.40
2022-08-17T00:22:32.379Z,3.27
2022-08-17T00:24:47.539Z,3.45
2022-08-17T00:27:14.102Z,3.55
2022-08-17T00:29:41.127Z,3.60
2022-08-17T00:33:14.246Z,3.60
2022-08-17T00:34:54.465Z,3.80
2022-08-17T00:37:21.033Z,3.25
2022-08-17T00:39:47.722Z,3.85
2022-08-17T00:42:16.182Z,3.88
2022-08-17T00:44:42.866Z,3.97
2022-08-17T00:47:09.514Z,3.63
2022-08-17T00:49:36.080Z,3.70
2022-08-17T00:52:10.808Z,3.90
2022-08-17T00:54:41.795Z,3.97
2022-08-17T00:57:11.850Z,3.90
2022-08-17T00:59:42.784Z,3.65
2022-08-17T01:02:12.664Z,3.95
2022-08-17T01:04:39.537Z,4.23
2022-08-17T01:07:06.705Z,3.97
2022-08-17T01:09:33.773Z,4.60
2022-08-17T01:12:00.534Z,4.50
2022-08-17T01:14:27.257Z,4.10
2022-08-17T01:16:55.510Z,4.73
2022-08-17T01:19:29.566Z,4.03
2022-08-17T01:22:11.175Z,4.63
2022-08-17T01:24:47.655Z,4.47
2022-08-17T01:27:16.053Z,4.80
2022-08-17T01:29:48.824Z,4.40
2022-08-17T01:32:15.750Z,4.80
2022-08-17T01:34:50.088Z,5.40
2022-08-17T01:37:19.117Z,4.60
2022-08-17T01:39:51.476Z,4.80
2022-08-17T01:42:29.850Z,4.87
2022-08-17T01:44:58.878Z,4.73
2022-08-17T01:47:25.828Z,4.63
2022-08-17T01:49:52.451Z,4.20
2022-08-17T01:52:19.522Z,4.40
2022-08-17T01:54:47.363Z,4.23
2022-08-17T01:57:14.102Z,4.10
2022-08-17T01:59:40.749Z,4.20
2022-08-17T02:02:07.626Z,4.50
2022-08-17T02:04:34.819Z,4.10
2022-08-17T02:07:01.406Z,4.27
2022-08-17T02:09:29.517Z,4.30
2022-08-17T02:11:58.640Z,4.43
2022-08-17T02:14:25.910Z,4.50
2022-08-17T02:16:53.035Z,4.57
2022-08-17T02:19:20.303Z,4.03
2022-08-17T02:21:48.930Z,4.60
2022-08-17T02:24:58.741Z,4.43
2022-08-17T02:27:06.841Z,4.20
2022-08-17T02:29:33.492Z,4.40
2022-08-17T02:32:01.622Z,4.60
2022-08-17T02:34:28.862Z,4.50
2022-08-17T02:36:55.606Z,4.27
2022-08-17T02:39:22.215Z,4.33
2022-08-17T02:41:48.961Z,4.60
2022-08-17T02:44:39.332Z,4.60
2022-08-17T02:47:03.342Z,4.43
2022-08-17T02:49:30.282Z,4.50
2022-08-17T02:51:58.075Z,4.23
2022-08-17T02:54:41.144Z,4.40
2022-08-17T02:57:09.493Z,4.20
2022-08-17T02:59:36.084Z,4.43
2022-08-17T03:02:04.369Z,4.30
2022-08-17T03:04:31.740Z,4.50
2022-08-17T03:07:02.787Z,4.60
2022-08-17T03:09:29.378Z,4.90
2022-08-17T03:12:13.187Z,4.23
2022-08-17T03:14:41.679Z,4.20
2022-08-17T03:17:10.011Z,4.40
2022-08-17T03:19:37.369Z,4.30
2022-08-17T03:22:35.864Z,4.17
2022-08-17T03:24:56.851Z,4.53
2022-08-17T03:27:23.499Z,4.40
2022-08-17T03:29:50.138Z,4.43
2022-08-17T03:32:16.766Z,4.37
2022-08-17T03:34:43.481Z,4.83
2022-08-17T03:37:10.098Z,4.40
2022-08-17T03:39:36.783Z,4.37
2022-08-17T03:42:31.928Z,4.80
2022-08-17T03:44:59.308Z,4.33
2022-08-17T03:47:44.391Z,4.80
2022-08-17T03:50:30.783Z,4.60
2022-08-17T03:53:16.006Z,4.60
2022-08-17T03:56:01.751Z,4.80
2022-08-17T03:58:28.408Z,4.77
2022-08-17T04:00:55.295Z,4.60
2022-08-17T04:03:21.951Z,4.53
2022-08-17T04:05:48.521Z,4.80
2022-08-17T04:08:15.175Z,4.40
2022-08-17T04:10:45.176Z,4.93
2022-08-17T04:13:12.194Z,4.43
2022-08-17T04:15:38.798Z,4.70
2022-08-17T04:18:07.343Z,4.73
2022-08-17T04:20:34.499Z,5.47
2022-08-17T04:23:14.217Z,4.60
2022-08-17T04:25:44.180Z,4.60
2022-08-17T04:28:15.622Z,4.87
2022-08-17T04:30:45.251Z,4.77
2022-08-17T04:33:15.579Z,5.03
2022-08-17T04:35:48.034Z,4.90
2022-08-17T04:38:17.336Z,4.57
2022-08-17T04:41:03.573Z,5.23
2022-08-17T04:43:31.578Z,4.70
2022-08-17T04:46:04.709Z,4.63
2022-08-17T04:48:37.238Z,4.80
2022-08-17T04:51:13.521Z,4.53
2022-08-17T04:53:42.936Z,4.80
2022-08-17T04:56:11.707Z,5.03
2022-08-17T04:58:44.389Z,4.90
2022-08-17T05:01:11.186Z,4.53
2022-08-17T05:03:37.939Z,4.80
2022-08-17T05:06:05.089Z,4.40
2022-08-17T05:08:31.753Z,4.93
2022-08-17T05:10:58.533Z,4.17
2022-08-17T05:13:26.922Z,4.80
2022-08-17T05:16:01.825Z,4.37
2022-08-17T05:18:29.539Z,4.77
2022-08-17T05:20:57.024Z,4.30
2022-08-17T05:23:26.031Z,4.00
2022-08-17T05:25:55.377Z,4.07
2022-08-17T05:28:24.083Z,4.47
2022-08-17T05:30:56.326Z,4.47
2022-08-17T05:33:25.667Z,4.40
2022-08-17T05:35:55.283Z,4.03
2022-08-17T05:38:23.447Z,3.90
2022-08-17T05:40:50.405Z,4.15
2022-08-17T05:43:27.319Z,3.97
2022-08-17T05:46:06.229Z,4.35
2022-08-17T05:48:39.906Z,3.78
2022-08-17T05:51:37.134Z,3.92
2022-08-17T05:54:21.760Z,4.20
2022-08-17T05:57:07.211Z,3.83
2022-08-17T05:59:33.843Z,3.33
2022-08-17T06:02:08.677Z,3.88
2022-08-17T06:05:01.590Z,3.95
2022-08-17T06:07:32.906Z,3.60
2022-08-17T06:10:14.738Z,3.80
2022-08-17T06:13:03.528Z,3.78
2022-08-17T06:15:47.732Z,4.30
2022-08-17T06:18:18.595Z,3.67
2022-08-17T06:20:50.614Z,3.92
2022-08-17T06:23:42.763Z,3.60
2022-08-17T06:26:25.888Z,3.60
2022-08-17T06:29:03.422Z,3.65
2022-08-17T06:31:35.209Z,3.65
2022-08-17T06:34:03.564Z,3.58
2022-08-17T06:37:01.783Z,3.50
2022-08-17T06:40:01.996Z,3.65
2022-08-17T06:43:00.875Z,3.50
2022-08-17T06:45:31.332Z,3.58
2022-08-17T06:48:09.139Z,3.67
2022-08-17T06:50:40.016Z,3.28
2022-08-17T06:53:31.772Z,3.15
2022-08-17T06:56:14.514Z,3.15
2022-08-17T06:58:43.433Z,3.00
2022-08-17T07:01:14.964Z,3.03
2022-08-17T07:03:49.845Z,2.80
2022-08-17T07:06:21.997Z,3.15
2022-08-17T07:08:54.716Z,2.95
2022-08-17T07:11:32.481Z,2.85
2022-08-17T07:14:39.379Z,3.47
2022-08-17T07:17:11.499Z,3.00
2022-08-17T07:19:41.168Z,2.90
2022-08-17T07:22:55.324Z,3.00
2022-08-17T07:25:26.267Z,2.90
2022-08-17T07:27:55.886Z,3.00
2022-08-17T07:30:25.679Z,2.72
2022-08-17T07:33:02.543Z,3.00
2022-08-17T07:35:37.635Z,2.92
2022-08-17T07:38:26.301Z,2.65
2022-08-17T07:41:03.349Z,2.30
2022-08-17T07:43:31.222Z,2.47
2022-08-17T07:46:35.313Z,3.03
2022-08-17T07:49:07.592Z,2.42
2022-08-17T07:51:39.694Z,2.75
2022-08-17T07:54:15.405Z,2.95
2022-08-17T07:56:48.113Z,2.75
2022-08-17T07:59:23.609Z,2.88
2022-08-17T08:01:57.736Z,2.47
2022-08-17T08:04:59.640Z,2.42
2022-08-17T08:07:42.432Z,2.47
2022-08-17T08:10:16.603Z,2.65
2022-08-17T08:12:53.684Z,2.55
2022-08-17T08:15:23.476Z,2.53
2022-08-17T08:18:00.724Z,2.50
2022-08-17T08:20:53.252Z,2.47
2022-08-17T08:23:42.317Z,2.67
2022-08-17T08:26:18.871Z,2.60
2022-08-17T08:29:03.786Z,2.80
2022-08-17T08:31:57.642Z,2.50
2022-08-17T08:34:47.360Z,2.70
2022-08-17T08:37:32.626Z,2.55
2022-08-17T08:40:17.958Z,2.63
2022-08-17T08:42:56.989Z,2.70
2022-08-17T08:45:49.828Z,2.63
2022-08-17T08:48:56.311Z,2.78
2022-08-17T08:51:28.159Z,3.00
2022-08-17T08:54:03.412Z,2.97
2022-08-17T08:57:11.969Z,3.08
2022-08-17T08:59:41.804Z,2.70
2022-08-17T09:02:19.987Z,3.00
2022-08-17T09:05:31.732Z,3.28
2022-08-17T09:08:12.523Z,3.55
2022-08-17T09:11:21.331Z,3.10
2022-08-17T09:14:21.229Z,3.03
2022-08-17T09:16:55.611Z,3.30
2022-08-17T09:19:49.968Z,2.80
2022-08-17T09:22:25.536Z,3.20
2022-08-17T09:25:08.567Z,3.28
2022-08-17T09:27:53.322Z,3.45
2022-08-17T09:30:21.270Z,3.70
2022-08-17T09:32:55.305Z,3.33
2022-08-17T09:35:25.123Z,3.33
2022-08-17T09:38:20.434Z,3.15
2022-08-17T09:41:11.395Z,3.45
2022-08-17T09:44:00.398Z,3.50
2022-08-17T09:46:39.432Z,3.50
2022-08-17T09:49:15.044Z,3.65
2022-08-17T09:51:52.199Z,3.28
2022-08-17T09:54:39.228Z,3.35
2022-08-17T09:57:43.427Z,3.55
2022-08-17T10:00:29.242Z,3.58
2022-08-17T10:03:20.048Z,3.50
2022-08-17T10:06:10.721Z,3.30
2022-08-17T10:09:07.415Z,3.30
2022-08-17T10:12:06.426Z,3.40
2022-08-17T10:14:44.926Z,3.00
2022-08-17T10:17:23.213Z,3.40
2022-08-17T10:19:49.757Z,3.47
2022-08-17T10:22:54.826Z,3.50
2022-08-17T10:25:54.544Z,3.58
2022-08-17T10:28:30.293Z,3.55
2022-08-17T10:31:30.944Z,3.50
2022-08-17T10:33:57.684Z,3.38
2022-08-17T10:36:43.169Z,3.40
2022-08-17T10:39:52.671Z,3.40
2022-08-17T10:42:30.249Z,3.30
2022-08-17T10:45:26.701Z,3.50
2022-08-17T10:48:36.804Z,3.55
2022-08-17T10:51:08.882Z,3.60
2022-08-17T10:53:35.487Z,3.40
2022-08-17T10:56:14.242Z,3.28
2022-08-17T10:58:55.903Z,3.30
2022-08-17T11:01:43.445Z,3.28
2022-08-17T11:04:21.199Z,3.60
2022-08-17T11:07:27.912Z,3.20
2022-08-17T11:10:17.010Z,3.40
2022-08-17T11:12:47.680Z,3.20
2022-08-17T11:15:37.063Z,3.20
2022-08-17T11:18:33.118Z,3.30
2022-08-17T11:21:17.884Z,3.28
2022-08-17T11:24:00.005Z,3.13
2022-08-17T11:26:32.659Z,3.35
2022-08-17T11:29:02.201Z,3.10
2022-08-17T11:31:38.747Z,3.00
2022-08-17T11:34:19.383Z,3.10
2022-08-17T11:37:26.196Z,3.55
2022-08-17T11:40:06.479Z,3.45
2022-08-17T11:42:57.275Z,3.55
2022-08-17T11:45:40.239Z,3.05
2022-08-17T11:48:34.642Z,3.20
2022-08-17T11:51:34.976Z,3.50
2022-08-17T11:57:26.929Z,3.60
2022-08-17T12:00:10.630Z,3.25
2022-08-17T12:02:47.552Z,3.28
2022-08-17T12:05:16.860Z,3.10
2022-08-17T12:07:56.817Z,3.47
2022-08-17T12:10:31.997Z,3.30
2022-08-17T12:12:59.951Z,3.60
2022-08-17T12:15:36.665Z,3.40
2022-08-17T12:18:03.679Z,3.50
2022-08-17T12:20:34.747Z,3.45
2022-08-17T12:23:20.181Z,3.05
2022-08-17T12:25:59.444Z,3.40
2022-08-17T12:28:29.084Z,3.60
2022-08-17T12:31:06.978Z,3.33
2022-08-17T12:33:36.609Z,3.50
2022-08-17T12:36:05.961Z,3.28
2022-08-17T12:38:34.757Z,3.20
2022-08-17T12:41:21.529Z,3.20
2022-08-17T12:44:01.675Z,3.40
2022-08-17T12:46:33.624Z,3.67
2022-08-17T12:49:32.961Z,3.53
2022-08-17T12:52:05.728Z,3.78
2022-08-17T12:54:41.673Z,3.42
2022-08-17T12:57:21.729Z,3.50
2022-08-17T12:59:59.722Z,3.58
2022-08-17T13:02:39.063Z,3.60
2022-08-17T13:05:07.657Z,3.60
2022-08-17T13:07:46.521Z,3.47
2022-08-17T13:10:18.387Z,3.08
2022-08-17T13:12:45.163Z,3.53
2022-08-17T13:15:35.201Z,3.50
2022-08-17T13:18:07.076Z,3.70
2022-08-17T13:20:34.844Z,3.40
2022-08-17T13:23:11.382Z,3.17
2022-08-17T13:25:39.071Z,3.15
2022-08-17T13:28:05.698Z,3.00
2022-08-17T13:30:33.504Z,3.47
2022-08-17T13:33:04.809Z,3.55
2022-08-17T13:35:45.912Z,3.40
2022-08-17T13:38:52.895Z,3.22
2022-08-17T13:41:34.876Z,3.35
2022-08-17T13:44:02.091Z,3.20
2022-08-17T13:46:31.633Z,3.05
2022-08-17T13:49:01.397Z,4.20
2022-08-17T13:51:36.850Z,3.15
2022-08-17T13:54:06.200Z,3.08
2022-08-17T13:56:38.598Z,3.50
2022-08-17T13:59:07.976Z,3.33
2022-08-17T14:01:48.517Z,3.17
2022-08-17T14:04:23.783Z,3.10
2022-08-17T14:07:11.453Z,3.33
2022-08-17T14:09:40.839Z,3.60
2022-08-17T14:12:12.966Z,3.40
2022-08-17T14:14:40.841Z,3.83
2022-08-17T14:17:07.951Z,3.28
2022-08-17T14:19:35.074Z,3.22
2022-08-17T14:22:02.191Z,3.17
2022-08-17T14:24:35.203Z,3.40
2022-08-17T14:27:03.651Z,3.45
2022-08-17T14:29:32.068Z,3.63
2022-08-17T14:32:04.351Z,3.38
2022-08-17T14:34:31.115Z,3.10
2022-08-17T14:36:57.777Z,3.30
2022-08-17T14:39:24.411Z,3.70
2022-08-17T14:41:51.034Z,3.10
2022-08-17T14:44:17.731Z,3.55
2022-08-17T14:46:44.901Z,3.30
2022-08-17T14:49:12.859Z,3.50
2022-08-17T14:51:44.234Z,3.15
2022-08-17T14:54:33.105Z,3.28
2022-08-17T14:57:23.811Z,3.38
2022-08-17T14:59:49.234Z,3.35
2022-08-17T15:02:22.732Z,3.30
2022-08-17T15:05:05.096Z,3.63
2022-08-17T15:07:31.928Z,3.45
2022-08-17T15:10:01.508Z,3.35
2022-08-17T15:12:33.215Z,3.25
2022-08-17T15:15:01.178Z,3.38
2022-08-17T15:17:44.565Z,3.30
2022-08-17T15:20:15.783Z,3.40
2022-08-17T15:22:43.781Z,3.55
2022-08-17T15:25:11.296Z,3.50
2022-08-17T15:27:37.927Z,3.35
2022-08-17T15:30:07.287Z,3.25
2022-08-17T15:32:37.915Z,3.22
2022-08-17T15:35:06.181Z,3.45
2022-08-17T15:37:33.446Z,3.08
2022-08-17T15:40:01.291Z,3.67
2022-08-17T15:42:29.322Z,3.60
2022-08-17T15:44:56.587Z,3.65
2022-08-17T15:47:23.326Z,3.42
2022-08-17T15:49:51.023Z,3.22
2022-08-17T15:52:23.978Z,3.47
2022-08-17T15:54:52.602Z,3.38
2022-08-17T15:57:19.299Z,3.22
2022-08-17T15:59:46.810Z,3.20
2022-08-17T16:03:14.561Z,3.17
2022-08-17T16:05:15.572Z,3.63
2022-08-17T16:07:45.634Z,3.40
2022-08-17T16:10:18.207Z,3.28
2022-08-17T16:12:46.818Z,3.30
2022-08-17T16:15:13.876Z,3.42
2022-08-17T16:17:43.857Z,3.35
2022-08-17T16:20:20.021Z,3.53
2022-08-17T16:22:48.884Z,3.13
2022-08-17T16:25:19.588Z,3.35
2022-08-17T16:27:49.087Z,2.95
2022-08-17T16:30:17.508Z,3.38
2022-08-17T16:32:45.982Z,3.30
2022-08-17T16:35:17.326Z,3.17
2022-08-17T16:37:45.605Z,3.40
2022-08-17T16:40:13.564Z,3.10
2022-08-17T16:42:40.375Z,3.08
2022-08-17T16:45:10.841Z,3.50
2022-08-17T16:47:38.069Z,3.25
2022-08-17T16:50:06.498Z,3.55
2022-08-17T16:52:33.651Z,3.60
2022-08-17T16:55:04.398Z,3.28
2022-08-17T16:57:32.480Z,3.63
2022-08-17T16:59:59.194Z,3.53
2022-08-17T17:02:34.599Z,3.60
2022-08-17T17:05:16.459Z,3.80
2022-08-17T17:07:54.893Z,3.35
2022-08-17T17:10:31.798Z,3.40
2022-08-17T17:13:02.303Z,3.47
2022-08-17T17:15:53.321Z,3.30
2022-08-17T17:18:23.410Z,3.45
2022-08-17T17:20:55.852Z,3.38
2022-08-17T17:23:32.159Z,3.35
2022-08-17T17:26:13.523Z,3.15
2022-08-17T17:28:52.086Z,3.20
2022-08-17T17:31:21.344Z,3.45
2022-08-17T17:34:00.572Z,3.47
2022-08-17T17:36:33.383Z,3.30
2022-08-17T17:39:43.548Z,3.38
2022-08-17T17:42:19.986Z,3.08
2022-08-17T17:44:49.332Z,3.50
2022-08-17T17:47:16.239Z,3.58
2022-08-17T17:49:45.119Z,3.35
2022-08-17T17:52:47.419Z,3.22
2022-08-17T17:55:30.203Z,3.42
2022-08-17T17:58:09.044Z,3.00
2022-08-17T18:01:03.283Z,3.42
2022-08-17T18:03:44.209Z,3.30
2022-08-17T18:06:21.170Z,3.60
2022-08-17T18:09:19.396Z,3.25
2022-08-17T18:12:03.395Z,3.40
2022-08-17T18:14:54.725Z,3.53
2022-08-17T18:17:21.588Z,3.55
2022-08-17T18:19:48.311Z,3.50
2022-08-17T18:22:24.461Z,3.35
2022-08-17T18:24:56.093Z,3.45
2022-08-17T18:27:35.496Z,3.40
2022-08-17T18:30:24.327Z,3.55
2022-08-17T18:32:51.086Z,3.60
2022-08-17T18:35:22.243Z,3.80
2022-08-17T18:37:50.384Z,3.80
2022-08-17T18:40:17.242Z,3.70
2022-08-17T18:42:45.805Z,3.92
2022-08-17T18:45:13.659Z,3.78
2022-08-17T18:48:26.815Z,4.75
2022-08-17T18:51:00.174Z,5.00
2022-08-17T18:53:33.441Z,5.80
2022-08-17T18:56:15.833Z,5.85
2022-08-17T18:58:42.784Z,6.90
2022-08-17T19:01:19.151Z,7.95
2022-08-17T19:03:46.564Z,7.88
2022-08-17T19:06:33.031Z,7.70
2022-08-17T19:09:00.375Z,7.53
2022-08-17T19:11:34.221Z,7.60
2022-08-17T19:14:02.447Z,8.07
2022-08-17T19:16:36.375Z,7.38
2022-08-17T19:19:30.814Z,7.85
2022-08-17T19:22:03.378Z,7.30
2022-08-17T19:24:31.777Z,8.05
2022-08-17T19:27:19.594Z,8.27
2022-08-17T19:29:48.346Z,7.97
2022-08-17T19:32:21.685Z,8.27
2022-08-17T19:34:48.424Z,7.30
2022-08-17T19:37:33.683Z,7.93
2022-08-17T19:40:08.793Z,7.50
2022-08-17T19:42:52.030Z,7.35
2022-08-17T19:45:46.339Z,6.50
2022-08-17T19:48:35.632Z,6.60
2022-08-17T19:51:15.844Z,7.10
2022-08-17T19:54:05.010Z,6.80
2022-08-17T19:57:05.179Z,7.32
2022-08-17T19:59:52.411Z,7.10
2022-08-17T20:02:55.807Z,6.53
2022-08-17T20:05:40.643Z,5.97
2022-08-17T20:08:40.927Z,5.43
2022-08-17T20:11:16.016Z,5.70
2022-08-17T20:13:50.996Z,5.20
2022-08-17T20:16:19.343Z,4.90
2022-08-17T20:18:58.047Z,4.60
2022-08-17T20:21:46.399Z,4.30
2022-08-17T20:24:34.311Z,4.57
2022-08-17T20:27:19.108Z,4.38
2022-08-17T20:30:11.525Z,4.32
2022-08-17T20:32:51.955Z,4.40
2022-08-17T20:35:18.499Z,4.13
2022-08-17T20:37:53.328Z,4.50
2022-08-17T20:40:24.187Z,4.38
2022-08-17T20:42:50.855Z,4.53
2022-08-17T20:45:20.439Z,4.60
2022-08-17T20:48:18.672Z,4.00
2022-08-17T20:50:44.426Z,4.40
2022-08-17T20:53:13.565Z,4.05
2022-08-17T20:55:51.862Z,4.07
2022-08-17T20:58:21.023Z,4.38
2022-08-17T21:00:56.814Z,4.30
2022-08-17T21:03:23.614Z,4.55
2022-08-17T21:06:16.882Z,4.40
2022-08-17T21:08:54.847Z,4.65
2022-08-17T21:11:59.943Z,4.28
2022-08-17T21:14:24.762Z,4.50
2022-08-17T21:17:29.663Z,4.10
2022-08-17T21:20:13.808Z,4.32
2022-08-17T21:22:52.732Z,4.18
2022-08-17T21:25:28.540Z,4.40
2022-08-17T21:28:14.178Z,4.28
2022-08-17T21:30:41.004Z,4.63
2022-08-17T21:33:15.130Z,4.25
2022-08-17T21:36:23.706Z,4.88
2022-08-17T21:38:53.374Z,4.60
2022-08-17T21:41:34.291Z,4.55
2022-08-17T21:44:12.140Z,4.47
2022-08-17T21:46:42.887Z,5.20
2022-08-17T21:49:16.596Z,5.10
2022-08-17T21:51:53.809Z,4.68
2022-08-17T21:54:36.718Z,4.65
2022-08-17T21:57:06.234Z,4.47
2022-08-17T21:59:36.788Z,5.13
2022-08-17T22:02:07.753Z,4.50
2022-08-17T22:04:40.376Z,5.05
2022-08-17T22:07:10.671Z,4.65
2022-08-17T22:09:48.730Z,4.90
2022-08-17T22:12:16.470Z,5.10
2022-08-17T22:15:01.026Z,5.22
2022-08-17T22:17:35.402Z,5.20
2022-08-17T22:20:05.632Z,5.22
2022-08-17T22:22:56.513Z,4.82
2022-08-17T22:25:24.915Z,4.95
2022-08-17T22:28:03.167Z,4.80
2022-08-17T22:30:29.909Z,4.43
2022-08-17T22:32:56.975Z,4.80
2022-08-17T22:35:32.551Z,5.25
2022-08-17T22:38:18.049Z,4.70
2022-08-17T22:40:50.312Z,5.03
2022-08-17T22:43:21.353Z,5.00
2022-08-17T22:45:55.146Z,5.35
2022-08-17T22:48:27.103Z,5.18
2022-08-17T22:51:15.040Z,4.85
2022-08-17T22:54:14.027Z,4.85
2022-08-17T22:57:18.959Z,4.65
2022-08-17T22:59:53.894Z,4.70
2022-08-17T23:02:24.779Z,5.10
2022-08-17T23:05:16.925Z,4.85
2022-08-17T23:07:45.137Z,5.18
2022-08-17T23:10:12.872Z,4.72
2022-08-17T23:12:39.818Z,5.72
2022-08-17T23:15:12.728Z,4.70
2022-08-17T23:17:39.380Z,5.15
2022-08-17T23:20:08.505Z,5.63
2022-08-17T23:22:36.957Z,5.05
2022-08-17T23:25:04.404Z,5.10
2022-08-17T23:27:32.061Z,5.60
2022-08-17T23:29:58.755Z,5.27
2022-08-17T23:32:25.823Z,5.03
2022-08-17T23:34:52.459Z,5.13
2022-08-17T23:37:19.606Z,5.20
2022-08-17T23:39:46.396Z,5.63
2022-08-17T23:42:15.588Z,5.35
2022-08-17T23:44:43.845Z,5.60
2022-08-17T23:47:11.243Z,5.50
2022-08-17T23:49:39.167Z,5.63
2022-08-17T23:52:09.908Z,5.90
2022-08-17T23:54:46.500Z,6.03
2022-08-17T23:57:33.067Z,5.80
